Alamillo, New Mexico
Current Conditions -  °F | °C
As of 6:35 PM on Thursday 27 Nov 2014 (Local Time) from KONM Reporting Station
Clear Clear  
Wind Chill: 45°   Ceiling: Unl
Heat Index: 49°   Visibility: 10mi
Dew Point: 20°   Wind: 8mph
Humidity: 32%   Direction: 250°WSW
Pressure: 30.33"   Gusts: NA
Location:  34.262°N, 106.87°W
Report Text: KONM 280135Z AUTO 25007KT 10SM CLR 09/M07 A3033 RMK AO2 T00941067
Loading
Personal Weather Stations






























Interactive Weather Map New forecast layout! Learn more

10-Day Weather Forecast

Advertisements
Track Severe Weather on mobile